sensor_id;sensor_type;location;lat;lon;timestamp;P1;durP1;ratioP1;P2;durP2;ratioP2
75016;SDS011;63577;39.766;2.720;2023-05-07T00:01:41;4.60;;;1.70;;
75016;SDS011;63577;39.766;2.720;2023-05-07T00:04:06;4.80;;;1.90;;
75016;SDS011;63577;39.766;2.720;2023-05-07T00:06:32;4.60;;;1.80;;
75016;SDS011;63577;39.766;2.720;2023-05-07T00:08:58;5.40;;;1.70;;
75016;SDS011;63577;39.766;2.720;2023-05-07T00:11:23;4.60;;;1.80;;
75016;SDS011;63577;39.766;2.720;2023-05-07T00:13:49;4.90;;;2.00;;
75016;SDS011;63577;39.766;2.720;2023-05-07T00:16:14;4.20;;;1.70;;
75016;SDS011;63577;39.766;2.720;2023-05-07T00:18:40;4.10;;;1.60;;
75016;SDS011;63577;39.766;2.720;2023-05-07T00:21:05;4.60;;;2.10;;
75016;SDS011;63577;39.766;2.720;2023-05-07T00:23:30;4.10;;;2.00;;
75016;SDS011;63577;39.766;2.720;2023-05-07T00:25:56;4.60;;;1.40;;
75016;SDS011;63577;39.766;2.720;2023-05-07T00:28:21;4.40;;;1.80;;
75016;SDS011;63577;39.766;2.720;2023-05-07T00:30:46;4.00;;;1.70;;
75016;SDS011;63577;39.766;2.720;2023-05-07T00:33:12;3.80;;;1.70;;
75016;SDS011;63577;39.766;2.720;2023-05-07T00:35:37;3.50;;;1.40;;
75016;SDS011;63577;39.766;2.720;2023-05-07T00:38:03;3.60;;;1.70;;
75016;SDS011;63577;39.766;2.720;2023-05-07T00:40:28;3.40;;;1.40;;
75016;SDS011;63577;39.766;2.720;2023-05-07T00:42:53;4.80;;;1.60;;
75016;SDS011;63577;39.766;2.720;2023-05-07T00:45:24;3.40;;;1.70;;
75016;SDS011;63577;39.766;2.720;2023-05-07T00:47:51;4.30;;;1.60;;
75016;SDS011;63577;39.766;2.720;2023-05-07T00:50:16;4.20;;;1.80;;
75016;SDS011;63577;39.766;2.720;2023-05-07T00:52:42;3.60;;;1.70;;
75016;SDS011;63577;39.766;2.720;2023-05-07T00:55:07;4.20;;;1.90;;
75016;SDS011;63577;39.766;2.720;2023-05-07T00:57:35;4.80;;;1.60;;
75016;SDS011;63577;39.766;2.720;2023-05-07T01:00:03;4.10;;;1.60;;
75016;SDS011;63577;39.766;2.720;2023-05-07T01:02:29;3.90;;;1.70;;
75016;SDS011;63577;39.766;2.720;2023-05-07T01:04:54;4.40;;;1.70;;
75016;SDS011;63577;39.766;2.720;2023-05-07T01:07:20;4.30;;;1.50;;
75016;SDS011;63577;39.766;2.720;2023-05-07T01:09:45;3.80;;;1.60;;
75016;SDS011;63577;39.766;2.720;2023-05-07T01:12:11;4.00;;;1.60;;
75016;SDS011;63577;39.766;2.720;2023-05-07T01:14:36;5.60;;;1.90;;
75016;SDS011;63577;39.766;2.720;2023-05-07T01:17:01;4.40;;;2.10;;
75016;SDS011;63577;39.766;2.720;2023-05-07T01:19:28;3.60;;;1.80;;
75016;SDS011;63577;39.766;2.720;2023-05-07T01:21:53;5.10;;;2.10;;
75016;SDS011;63577;39.766;2.720;2023-05-07T01:24:22;4.10;;;1.80;;
75016;SDS011;63577;39.766;2.720;2023-05-07T01:26:48;4.90;;;2.00;;
75016;SDS011;63577;39.766;2.720;2023-05-07T01:29:13;7.80;;;2.10;;
75016;SDS011;63577;39.766;2.720;2023-05-07T01:31:38;5.70;;;1.90;;
75016;SDS011;63577;39.766;2.720;2023-05-07T01:34:05;5.50;;;1.90;;
75016;SDS011;63577;39.766;2.720;2023-05-07T01:36:32;4.60;;;2.20;;
75016;SDS011;63577;39.766;2.720;2023-05-07T01:38:57;4.50;;;1.90;;
75016;SDS011;63577;39.766;2.720;2023-05-07T01:41:24;4.50;;;1.70;;
75016;SDS011;63577;39.766;2.720;2023-05-07T01:43:50;5.00;;;2.30;;
75016;SDS011;63577;39.766;2.720;2023-05-07T01:46:16;4.00;;;1.50;;
75016;SDS011;63577;39.766;2.720;2023-05-07T01:48:42;3.90;;;1.80;;
75016;SDS011;63577;39.766;2.720;2023-05-07T01:51:11;3.50;;;1.40;;
75016;SDS011;63577;39.766;2.720;2023-05-07T01:53:37;3.90;;;2.00;;
75016;SDS011;63577;39.766;2.720;2023-05-07T01:56:02;4.30;;;1.70;;
75016;SDS011;63577;39.766;2.720;2023-05-07T01:58:28;4.60;;;1.80;;
75016;SDS011;63577;39.766;2.720;2023-05-07T02:00:53;4.90;;;1.60;;
75016;SDS011;63577;39.766;2.720;2023-05-07T02:03:18;4.30;;;1.80;;
75016;SDS011;63577;39.766;2.720;2023-05-07T02:05:44;3.90;;;1.70;;
75016;SDS011;63577;39.766;2.720;2023-05-07T02:08:09;4.00;;;1.80;;
75016;SDS011;63577;39.766;2.720;2023-05-07T02:10:35;5.10;;;1.80;;
75016;SDS011;63577;39.766;2.720;2023-05-07T02:13:01;3.90;;;1.70;;
75016;SDS011;63577;39.766;2.720;2023-05-07T02:15:27;5.00;;;1.70;;
75016;SDS011;63577;39.766;2.720;2023-05-07T02:18:25;7.40;;;2.10;;
75016;SDS011;63577;39.766;2.720;2023-05-07T02:20:44;4.40;;;1.80;;
75016;SDS011;63577;39.766;2.720;2023-05-07T02:23:09;4.60;;;1.80;;
75016;SDS011;63577;39.766;2.720;2023-05-07T02:25:34;4.70;;;1.90;;
75016;SDS011;63577;39.766;2.720;2023-05-07T02:28:00;4.10;;;1.60;;
75016;SDS011;63577;39.766;2.720;2023-05-07T02:30:25;5.70;;;2.20;;
75016;SDS011;63577;39.766;2.720;2023-05-07T02:32:51;5.50;;;1.80;;
75016;SDS011;63577;39.766;2.720;2023-05-07T02:35:16;5.20;;;2.00;;
75016;SDS011;63577;39.766;2.720;2023-05-07T02:37:42;4.90;;;1.70;;
75016;SDS011;63577;39.766;2.720;2023-05-07T02:40:07;4.40;;;1.90;;
75016;SDS011;63577;39.766;2.720;2023-05-07T02:42:33;4.30;;;1.70;;
75016;SDS011;63577;39.766;2.720;2023-05-07T02:44:58;4.10;;;1.60;;
75016;SDS011;63577;39.766;2.720;2023-05-07T02:47:24;4.80;;;1.90;;
75016;SDS011;63577;39.766;2.720;2023-05-07T02:49:52;4.60;;;1.60;;
75016;SDS011;63577;39.766;2.720;2023-05-07T02:52:18;3.20;;;1.50;;
75016;SDS011;63577;39.766;2.720;2023-05-07T02:54:43;5.00;;;1.90;;
75016;SDS011;63577;39.766;2.720;2023-05-07T02:57:08;3.50;;;1.60;;
75016;SDS011;63577;39.766;2.720;2023-05-07T02:59:33;4.10;;;1.90;;
75016;SDS011;63577;39.766;2.720;2023-05-07T03:01:59;4.30;;;1.60;;
75016;SDS011;63577;39.766;2.720;2023-05-07T03:04:24;5.70;;;1.50;;
75016;SDS011;63577;39.766;2.720;2023-05-07T03:06:50;4.20;;;1.90;;
75016;SDS011;63577;39.766;2.720;2023-05-07T03:09:15;4.70;;;1.70;;
75016;SDS011;63577;39.766;2.720;2023-05-07T03:11:41;5.70;;;1.50;;
75016;SDS011;63577;39.766;2.720;2023-05-07T03:14:06;4.20;;;1.90;;
75016;SDS011;63577;39.766;2.720;2023-05-07T03:16:32;4.30;;;1.90;;
75016;SDS011;63577;39.766;2.720;2023-05-07T03:18:57;4.20;;;1.60;;
75016;SDS011;63577;39.766;2.720;2023-05-07T03:21:23;4.30;;;1.80;;
75016;SDS011;63577;39.766;2.720;2023-05-07T03:23:48;4.70;;;1.90;;
75016;SDS011;63577;39.766;2.720;2023-05-07T03:26:13;3.70;;;1.80;;
75016;SDS011;63577;39.766;2.720;2023-05-07T03:28:39;6.10;;;2.10;;
75016;SDS011;63577;39.766;2.720;2023-05-07T03:31:04;4.90;;;2.00;;
75016;SDS011;63577;39.766;2.720;2023-05-07T03:33:32;5.10;;;1.80;;
75016;SDS011;63577;39.766;2.720;2023-05-07T03:35:57;7.00;;;1.80;;
75016;SDS011;63577;39.766;2.720;2023-05-07T03:38:23;3.90;;;2.00;;
75016;SDS011;63577;39.766;2.720;2023-05-07T03:40:48;4.50;;;1.50;;
75016;SDS011;63577;39.766;2.720;2023-05-07T03:43:13;4.90;;;1.70;;
75016;SDS011;63577;39.766;2.720;2023-05-07T03:45:39;4.10;;;1.90;;
75016;SDS011;63577;39.766;2.720;2023-05-07T03:48:04;4.80;;;1.70;;
75016;SDS011;63577;39.766;2.720;2023-05-07T03:50:30;3.30;;;1.40;;
75016;SDS011;63577;39.766;2.720;2023-05-07T03:52:55;4.30;;;1.60;;
75016;SDS011;63577;39.766;2.720;2023-05-07T03:55:20;3.90;;;1.90;;
75016;SDS011;63577;39.766;2.720;2023-05-07T03:57:46;3.90;;;1.70;;
75016;SDS011;63577;39.766;2.720;2023-05-07T04:00:11;4.50;;;1.70;;
75016;SDS011;63577;39.766;2.720;2023-05-07T04:02:37;3.80;;;1.70;;
75016;SDS011;63577;39.766;2.720;2023-05-07T04:05:02;4.90;;;1.70;;
75016;SDS011;63577;39.766;2.720;2023-05-07T04:07:28;4.10;;;1.80;;
75016;SDS011;63577;39.766;2.720;2023-05-07T04:09:53;4.80;;;1.80;;
75016;SDS011;63577;39.766;2.720;2023-05-07T04:12:18;4.20;;;1.80;;
75016;SDS011;63577;39.766;2.720;2023-05-07T04:14:44;4.40;;;1.90;;
75016;SDS011;63577;39.766;2.720;2023-05-07T04:17:10;4.60;;;1.80;;
75016;SDS011;63577;39.766;2.720;2023-05-07T04:19:35;4.30;;;1.90;;
75016;SDS011;63577;39.766;2.720;2023-05-07T04:22:01;5.40;;;2.00;;
75016;SDS011;63577;39.766;2.720;2023-05-07T04:24:26;4.70;;;1.80;;
75016;SDS011;63577;39.766;2.720;2023-05-07T04:26:51;5.50;;;2.20;;
75016;SDS011;63577;39.766;2.720;2023-05-07T04:29:17;5.00;;;2.20;;
75016;SDS011;63577;39.766;2.720;2023-05-07T04:31:43;3.60;;;1.80;;
75016;SDS011;63577;39.766;2.720;2023-05-07T04:34:11;4.00;;;1.70;;
75016;SDS011;63577;39.766;2.720;2023-05-07T04:36:39;4.50;;;1.80;;
75016;SDS011;63577;39.766;2.720;2023-05-07T04:39:04;5.30;;;2.20;;
75016;SDS011;63577;39.766;2.720;2023-05-07T04:41:30;4.30;;;2.10;;
75016;SDS011;63577;39.766;2.720;2023-05-07T04:43:55;4.40;;;2.00;;
75016;SDS011;63577;39.766;2.720;2023-05-07T04:46:22;4.00;;;1.70;;
75016;SDS011;63577;39.766;2.720;2023-05-07T04:48:47;3.60;;;2.00;;
75016;SDS011;63577;39.766;2.720;2023-05-07T04:51:12;4.90;;;1.70;;
75016;SDS011;63577;39.766;2.720;2023-05-07T04:53:38;10.00;;;1.90;;
75016;SDS011;63577;39.766;2.720;2023-05-07T04:56:03;7.10;;;2.10;;
75016;SDS011;63577;39.766;2.720;2023-05-07T04:58:29;4.10;;;1.90;;
75016;SDS011;63577;39.766;2.720;2023-05-07T05:00:57;4.40;;;1.60;;
75016;SDS011;63577;39.766;2.720;2023-05-07T05:03:22;4.10;;;1.90;;
75016;SDS011;63577;39.766;2.720;2023-05-07T05:05:51;4.90;;;1.50;;
75016;SDS011;63577;39.766;2.720;2023-05-07T05:08:17;6.30;;;1.50;;
75016;SDS011;63577;39.766;2.720;2023-05-07T05:10:42;6.00;;;1.60;;
75016;SDS011;63577;39.766;2.720;2023-05-07T05:13:08;4.50;;;1.90;;
75016;SDS011;63577;39.766;2.720;2023-05-07T05:15:34;4.10;;;1.90;;
75016;SDS011;63577;39.766;2.720;2023-05-07T05:18:00;3.90;;;1.80;;
75016;SDS011;63577;39.766;2.720;2023-05-07T05:20:25;4.00;;;1.70;;
75016;SDS011;63577;39.766;2.720;2023-05-07T05:22:51;5.20;;;1.90;;
75016;SDS011;63577;39.766;2.720;2023-05-07T05:25:16;4.20;;;2.00;;
75016;SDS011;63577;39.766;2.720;2023-05-07T05:27:41;4.60;;;2.20;;
75016;SDS011;63577;39.766;2.720;2023-05-07T05:30:07;5.10;;;1.70;;
75016;SDS011;63577;39.766;2.720;2023-05-07T05:32:32;3.20;;;1.70;;
75016;SDS011;63577;39.766;2.720;2023-05-07T05:34:57;3.80;;;1.60;;
75016;SDS011;63577;39.766;2.720;2023-05-07T05:37:23;4.00;;;1.90;;
75016;SDS011;63577;39.766;2.720;2023-05-07T05:39:48;3.80;;;1.80;;
75016;SDS011;63577;39.766;2.720;2023-05-07T05:42:14;6.60;;;1.70;;
75016;SDS011;63577;39.766;2.720;2023-05-07T05:44:39;3.90;;;2.00;;
75016;SDS011;63577;39.766;2.720;2023-05-07T05:47:04;5.00;;;1.70;;
75016;SDS011;63577;39.766;2.720;2023-05-07T05:49:30;5.10;;;1.80;;
75016;SDS011;63577;39.766;2.720;2023-05-07T05:51:55;4.10;;;1.50;;
75016;SDS011;63577;39.766;2.720;2023-05-07T05:54:21;3.70;;;1.80;;
75016;SDS011;63577;39.766;2.720;2023-05-07T05:56:46;4.80;;;2.30;;
75016;SDS011;63577;39.766;2.720;2023-05-07T05:59:12;4.80;;;2.10;;
75016;SDS011;63577;39.766;2.720;2023-05-07T06:01:37;6.70;;;1.90;;
75016;SDS011;63577;39.766;2.720;2023-05-07T06:04:03;5.20;;;1.80;;
75016;SDS011;63577;39.766;2.720;2023-05-07T06:06:28;3.20;;;1.70;;
75016;SDS011;63577;39.766;2.720;2023-05-07T06:08:54;3.70;;;1.80;;
75016;SDS011;63577;39.766;2.720;2023-05-07T06:11:19;4.10;;;1.90;;
75016;SDS011;63577;39.766;2.720;2023-05-07T06:13:45;4.90;;;2.30;;
75016;SDS011;63577;39.766;2.720;2023-05-07T06:16:10;5.20;;;2.80;;
75016;SDS011;63577;39.766;2.720;2023-05-07T06:18:35;6.90;;;3.00;;
75016;SDS011;63577;39.766;2.720;2023-05-07T06:21:01;6.80;;;2.70;;
75016;SDS011;63577;39.766;2.720;2023-05-07T06:23:26;5.40;;;2.90;;
75016;SDS011;63577;39.766;2.720;2023-05-07T06:25:52;5.10;;;3.00;;
75016;SDS011;63577;39.766;2.720;2023-05-07T06:28:17;5.60;;;3.00;;
75016;SDS011;63577;39.766;2.720;2023-05-07T06:30:43;4.90;;;2.30;;
75016;SDS011;63577;39.766;2.720;2023-05-07T06:33:08;4.30;;;2.10;;
75016;SDS011;63577;39.766;2.720;2023-05-07T06:35:33;4.00;;;2.00;;
75016;SDS011;63577;39.766;2.720;2023-05-07T06:37:59;5.60;;;1.80;;
75016;SDS011;63577;39.766;2.720;2023-05-07T06:40:25;3.90;;;2.00;;
75016;SDS011;63577;39.766;2.720;2023-05-07T06:42:50;4.10;;;2.30;;
75016;SDS011;63577;39.766;2.720;2023-05-07T06:45:16;3.80;;;2.10;;
75016;SDS011;63577;39.766;2.720;2023-05-07T06:47:41;4.20;;;1.80;;
75016;SDS011;63577;39.766;2.720;2023-05-07T06:50:07;5.30;;;2.10;;
75016;SDS011;63577;39.766;2.720;2023-05-07T06:52:32;4.80;;;2.30;;
75016;SDS011;63577;39.766;2.720;2023-05-07T06:54:57;5.20;;;2.20;;
75016;SDS011;63577;39.766;2.720;2023-05-07T06:57:23;5.50;;;2.00;;
75016;SDS011;63577;39.766;2.720;2023-05-07T06:59:49;4.60;;;2.20;;
75016;SDS011;63577;39.766;2.720;2023-05-07T07:02:14;4.30;;;2.20;;
75016;SDS011;63577;39.766;2.720;2023-05-07T07:04:40;4.50;;;2.10;;
75016;SDS011;63577;39.766;2.720;2023-05-07T07:07:07;5.20;;;2.00;;
75016;SDS011;63577;39.766;2.720;2023-05-07T07:09:32;4.10;;;2.00;;
75016;SDS011;63577;39.766;2.720;2023-05-07T07:11:57;4.50;;;2.30;;
75016;SDS011;63577;39.766;2.720;2023-05-07T07:14:23;5.00;;;2.40;;
75016;SDS011;63577;39.766;2.720;2023-05-07T07:16:48;5.30;;;2.50;;
75016;SDS011;63577;39.766;2.720;2023-05-07T07:19:13;4.20;;;2.60;;
75016;SDS011;63577;39.766;2.720;2023-05-07T07:21:41;4.50;;;2.10;;
75016;SDS011;63577;39.766;2.720;2023-05-07T07:24:06;3.90;;;2.20;;
75016;SDS011;63577;39.766;2.720;2023-05-07T07:26:31;6.10;;;2.90;;
75016;SDS011;63577;39.766;2.720;2023-05-07T07:28:57;4.30;;;2.60;;
75016;SDS011;63577;39.766;2.720;2023-05-07T07:31:22;4.10;;;1.80;;
75016;SDS011;63577;39.766;2.720;2023-05-07T07:33:47;3.90;;;2.10;;
75016;SDS011;63577;39.766;2.720;2023-05-07T07:36:14;5.10;;;2.10;;
75016;SDS011;63577;39.766;2.720;2023-05-07T07:38:40;4.30;;;1.90;;
75016;SDS011;63577;39.766;2.720;2023-05-07T07:41:07;5.40;;;1.70;;
75016;SDS011;63577;39.766;2.720;2023-05-07T07:43:32;3.40;;;1.50;;
75016;SDS011;63577;39.766;2.720;2023-05-07T07:45:58;4.00;;;1.70;;
75016;SDS011;63577;39.766;2.720;2023-05-07T07:48:23;4.00;;;1.50;;
75016;SDS011;63577;39.766;2.720;2023-05-07T07:50:49;3.70;;;1.50;;
75016;SDS011;63577;39.766;2.720;2023-05-07T07:53:16;4.80;;;2.80;;
75016;SDS011;63577;39.766;2.720;2023-05-07T07:55:41;5.80;;;2.50;;
75016;SDS011;63577;39.766;2.720;2023-05-07T07:58:07;7.00;;;4.60;;
75016;SDS011;63577;39.766;2.720;2023-05-07T08:00:32;5.00;;;3.60;;
75016;SDS011;63577;39.766;2.720;2023-05-07T08:02:57;5.50;;;3.40;;
75016;SDS011;63577;39.766;2.720;2023-05-07T08:05:23;3.60;;;2.00;;
75016;SDS011;63577;39.766;2.720;2023-05-07T08:07:48;5.40;;;1.80;;
75016;SDS011;63577;39.766;2.720;2023-05-07T08:10:18;3.40;;;1.90;;
75016;SDS011;63577;39.766;2.720;2023-05-07T08:12:47;4.50;;;2.00;;
75016;SDS011;63577;39.766;2.720;2023-05-07T08:15:12;3.70;;;2.00;;
75016;SDS011;63577;39.766;2.720;2023-05-07T08:17:38;3.20;;;1.60;;
75016;SDS011;63577;39.766;2.720;2023-05-07T08:20:03;5.10;;;1.60;;
75016;SDS011;63577;39.766;2.720;2023-05-07T08:22:29;6.20;;;2.00;;
75016;SDS011;63577;39.766;2.720;2023-05-07T08:24:54;5.00;;;2.20;;
75016;SDS011;63577;39.766;2.720;2023-05-07T08:27:20;6.80;;;3.00;;
75016;SDS011;63577;39.766;2.720;2023-05-07T08:29:45;6.30;;;2.90;;
75016;SDS011;63577;39.766;2.720;2023-05-07T08:32:12;7.70;;;2.80;;
75016;SDS011;63577;39.766;2.720;2023-05-07T08:34:37;7.30;;;2.80;;
75016;SDS011;63577;39.766;2.720;2023-05-07T08:37:04;6.80;;;2.90;;
75016;SDS011;63577;39.766;2.720;2023-05-07T08:39:29;6.50;;;3.80;;
75016;SDS011;63577;39.766;2.720;2023-05-07T08:41:54;5.90;;;3.40;;
75016;SDS011;63577;39.766;2.720;2023-05-07T08:44:21;6.10;;;3.10;;
75016;SDS011;63577;39.766;2.720;2023-05-07T08:46:47;4.90;;;2.40;;
75016;SDS011;63577;39.766;2.720;2023-05-07T08:49:14;4.60;;;2.50;;
75016;SDS011;63577;39.766;2.720;2023-05-07T08:51:41;4.10;;;1.90;;
75016;SDS011;63577;39.766;2.720;2023-05-07T08:54:06;4.10;;;2.00;;
75016;SDS011;63577;39.766;2.720;2023-05-07T08:56:32;3.80;;;1.90;;
75016;SDS011;63577;39.766;2.720;2023-05-07T08:58:58;3.20;;;1.40;;
75016;SDS011;63577;39.766;2.720;2023-05-07T09:01:23;4.20;;;1.80;;
75016;SDS011;63577;39.766;2.720;2023-05-07T09:03:49;3.70;;;1.80;;
75016;SDS011;63577;39.766;2.720;2023-05-07T09:06:15;3.70;;;1.90;;
75016;SDS011;63577;39.766;2.720;2023-05-07T09:08:40;3.50;;;1.60;;
75016;SDS011;63577;39.766;2.720;2023-05-07T09:11:05;4.00;;;1.90;;
75016;SDS011;63577;39.766;2.720;2023-05-07T09:13:31;3.60;;;1.80;;
75016;SDS011;63577;39.766;2.720;2023-05-07T09:15:56;3.60;;;1.80;;
75016;SDS011;63577;39.766;2.720;2023-05-07T09:18:24;3.70;;;1.40;;
75016;SDS011;63577;39.766;2.720;2023-05-07T09:20:50;5.70;;;3.00;;
75016;SDS011;63577;39.766;2.720;2023-05-07T09:23:16;4.10;;;1.90;;
75016;SDS011;63577;39.766;2.720;2023-05-07T09:25:41;5.50;;;2.00;;
75016;SDS011;63577;39.766;2.720;2023-05-07T09:28:06;4.10;;;1.90;;
75016;SDS011;63577;39.766;2.720;2023-05-07T09:30:33;5.40;;;2.50;;
75016;SDS011;63577;39.766;2.720;2023-05-07T09:33:00;3.90;;;1.80;;
75016;SDS011;63577;39.766;2.720;2023-05-07T09:35:25;4.50;;;2.00;;
75016;SDS011;63577;39.766;2.720;2023-05-07T09:37:57;6.80;;;1.80;;
75016;SDS011;63577;39.766;2.720;2023-05-07T09:40:24;5.30;;;1.70;;
75016;SDS011;63577;39.766;2.720;2023-05-07T09:42:50;6.90;;;1.80;;
75016;SDS011;63577;39.766;2.720;2023-05-07T09:45:21;5.00;;;1.70;;
75016;SDS011;63577;39.766;2.720;2023-05-07T09:47:46;5.40;;;1.90;;
75016;SDS011;63577;39.766;2.720;2023-05-07T09:50:13;3.90;;;1.90;;
75016;SDS011;63577;39.766;2.720;2023-05-07T09:52:40;4.20;;;1.70;;
75016;SDS011;63577;39.766;2.720;2023-05-07T09:55:06;5.60;;;1.70;;
75016;SDS011;63577;39.766;2.720;2023-05-07T09:57:32;5.00;;;1.70;;
75016;SDS011;63577;39.766;2.720;2023-05-07T09:59:58;6.80;;;2.20;;
75016;SDS011;63577;39.766;2.720;2023-05-07T10:02:23;4.90;;;1.90;;
75016;SDS011;63577;39.766;2.720;2023-05-07T10:04:50;5.60;;;1.50;;
75016;SDS011;63577;39.766;2.720;2023-05-07T10:07:16;5.70;;;2.10;;
75016;SDS011;63577;39.766;2.720;2023-05-07T10:09:41;5.20;;;1.90;;
75016;SDS011;63577;39.766;2.720;2023-05-07T10:12:09;6.00;;;1.80;;
75016;SDS011;63577;39.766;2.720;2023-05-07T10:14:35;4.50;;;1.90;;
75016;SDS011;63577;39.766;2.720;2023-05-07T10:17:00;8.40;;;2.20;;
75016;SDS011;63577;39.766;2.720;2023-05-07T10:19:27;8.80;;;2.50;;
75016;SDS011;63577;39.766;2.720;2023-05-07T10:21:58;5.60;;;2.30;;
75016;SDS011;63577;39.766;2.720;2023-05-07T10:24:25;8.40;;;2.10;;
75016;SDS011;63577;39.766;2.720;2023-05-07T10:26:51;6.80;;;2.20;;
75016;SDS011;63577;39.766;2.720;2023-05-07T10:31:55;6.00;;;2.20;;
75016;SDS011;63577;39.766;2.720;2023-05-07T10:34:28;5.80;;;2.20;;
75016;SDS011;63577;39.766;2.720;2023-05-07T10:36:54;5.50;;;2.40;;
75016;SDS011;63577;39.766;2.720;2023-05-07T10:39:21;7.40;;;2.50;;
75016;SDS011;63577;39.766;2.720;2023-05-07T10:41:47;7.20;;;2.10;;
75016;SDS011;63577;39.766;2.720;2023-05-07T10:44:24;6.40;;;2.30;;
75016;SDS011;63577;39.766;2.720;2023-05-07T10:49:30;6.80;;;2.20;;
75016;SDS011;63577;39.766;2.720;2023-05-07T10:52:17;6.30;;;2.30;;
75016;SDS011;63577;39.766;2.720;2023-05-07T10:54:42;5.10;;;1.90;;
75016;SDS011;63577;39.766;2.720;2023-05-07T10:59:52;6.20;;;1.90;;
75016;SDS011;63577;39.766;2.720;2023-05-07T11:02:18;8.00;;;2.00;;
75016;SDS011;63577;39.766;2.720;2023-05-07T11:04:44;5.80;;;1.80;;
75016;SDS011;63577;39.766;2.720;2023-05-07T11:12:16;5.00;;;2.20;;
75016;SDS011;63577;39.766;2.720;2023-05-07T11:17:10;5.50;;;2.30;;
75016;SDS011;63577;39.766;2.720;2023-05-07T11:19:51;6.10;;;1.80;;
75016;SDS011;63577;39.766;2.720;2023-05-07T11:25:04;7.30;;;2.10;;
75016;SDS011;63577;39.766;2.720;2023-05-07T11:27:30;6.50;;;2.00;;
75016;SDS011;63577;39.766;2.720;2023-05-07T11:29:56;5.90;;;2.20;;
75016;SDS011;63577;39.766;2.720;2023-05-07T11:32:26;4.50;;;1.90;;
75016;SDS011;63577;39.766;2.720;2023-05-07T11:34:52;7.20;;;2.60;;
75016;SDS011;63577;39.766;2.720;2023-05-07T11:37:18;5.50;;;2.20;;
75016;SDS011;63577;39.766;2.720;2023-05-07T11:39:43;6.90;;;2.40;;
75016;SDS011;63577;39.766;2.720;2023-05-07T11:42:28;5.00;;;2.20;;
75016;SDS011;63577;39.766;2.720;2023-05-07T11:44:53;5.50;;;1.90;;
75016;SDS011;63577;39.766;2.720;2023-05-07T11:47:19;5.70;;;2.20;;
75016;SDS011;63577;39.766;2.720;2023-05-07T11:49:48;8.10;;;2.30;;
75016;SDS011;63577;39.766;2.720;2023-05-07T11:52:14;5.60;;;1.80;;
75016;SDS011;63577;39.766;2.720;2023-05-07T11:54:40;5.90;;;2.20;;
75016;SDS011;63577;39.766;2.720;2023-05-07T11:57:05;7.60;;;1.80;;
75016;SDS011;63577;39.766;2.720;2023-05-07T11:59:39;5.90;;;2.00;;
75016;SDS011;63577;39.766;2.720;2023-05-07T12:02:05;5.50;;;2.00;;
75016;SDS011;63577;39.766;2.720;2023-05-07T12:04:31;7.50;;;2.50;;
75016;SDS011;63577;39.766;2.720;2023-05-07T12:06:56;6.80;;;2.20;;
75016;SDS011;63577;39.766;2.720;2023-05-07T12:09:21;5.20;;;1.60;;
75016;SDS011;63577;39.766;2.720;2023-05-07T12:11:47;4.50;;;1.50;;
75016;SDS011;63577;39.766;2.720;2023-05-07T12:14:12;6.50;;;1.80;;
75016;SDS011;63577;39.766;2.720;2023-05-07T12:16:39;5.10;;;2.00;;
75016;SDS011;63577;39.766;2.720;2023-05-07T12:19:05;4.10;;;1.80;;
75016;SDS011;63577;39.766;2.720;2023-05-07T12:21:34;5.50;;;1.80;;
75016;SDS011;63577;39.766;2.720;2023-05-07T12:23:59;5.20;;;2.30;;
75016;SDS011;63577;39.766;2.720;2023-05-07T12:26:25;4.10;;;1.70;;
75016;SDS011;63577;39.766;2.720;2023-05-07T12:28:51;5.30;;;1.80;;
75016;SDS011;63577;39.766;2.720;2023-05-07T12:31:16;5.80;;;2.20;;
75016;SDS011;63577;39.766;2.720;2023-05-07T12:33:42;5.10;;;1.80;;
75016;SDS011;63577;39.766;2.720;2023-05-07T12:36:07;5.10;;;1.90;;
75016;SDS011;63577;39.766;2.720;2023-05-07T12:38:37;4.30;;;1.80;;
75016;SDS011;63577;39.766;2.720;2023-05-07T12:41:03;5.40;;;1.90;;
75016;SDS011;63577;39.766;2.720;2023-05-07T12:43:29;5.20;;;1.80;;
75016;SDS011;63577;39.766;2.720;2023-05-07T12:45:55;5.00;;;1.90;;
75016;SDS011;63577;39.766;2.720;2023-05-07T12:48:20;3.60;;;1.80;;
75016;SDS011;63577;39.766;2.720;2023-05-07T12:50:50;5.00;;;2.10;;
75016;SDS011;63577;39.766;2.720;2023-05-07T12:53:16;5.20;;;2.20;;
75016;SDS011;63577;39.766;2.720;2023-05-07T12:55:45;4.60;;;1.70;;
75016;SDS011;63577;39.766;2.720;2023-05-07T12:58:14;6.90;;;1.90;;
75016;SDS011;63577;39.766;2.720;2023-05-07T13:00:41;6.90;;;1.80;;
75016;SDS011;63577;39.766;2.720;2023-05-07T13:03:08;4.40;;;1.70;;
75016;SDS011;63577;39.766;2.720;2023-05-07T13:05:33;6.30;;;2.00;;
75016;SDS011;63577;39.766;2.720;2023-05-07T13:07:58;6.30;;;2.10;;
75016;SDS011;63577;39.766;2.720;2023-05-07T13:10:24;4.30;;;1.80;;
75016;SDS011;63577;39.766;2.720;2023-05-07T13:12:50;4.50;;;1.90;;
75016;SDS011;63577;39.766;2.720;2023-05-07T13:15:16;4.60;;;2.10;;
75016;SDS011;63577;39.766;2.720;2023-05-07T13:17:42;7.70;;;1.80;;
75016;SDS011;63577;39.766;2.720;2023-05-07T13:20:08;6.00;;;2.30;;
75016;SDS011;63577;39.766;2.720;2023-05-07T13:22:34;5.30;;;2.20;;
75016;SDS011;63577;39.766;2.720;2023-05-07T13:24:59;4.40;;;2.10;;
75016;SDS011;63577;39.766;2.720;2023-05-07T13:27:25;5.50;;;2.10;;
75016;SDS011;63577;39.766;2.720;2023-05-07T13:29:51;6.70;;;1.90;;
75016;SDS011;63577;39.766;2.720;2023-05-07T13:32:16;4.70;;;2.20;;
75016;SDS011;63577;39.766;2.720;2023-05-07T13:34:41;4.50;;;1.90;;
75016;SDS011;63577;39.766;2.720;2023-05-07T13:37:07;4.50;;;2.00;;
75016;SDS011;63577;39.766;2.720;2023-05-07T13:39:33;5.90;;;2.40;;
75016;SDS011;63577;39.766;2.720;2023-05-07T13:41:58;4.90;;;2.20;;
75016;SDS011;63577;39.766;2.720;2023-05-07T13:44:23;6.60;;;2.10;;
75016;SDS011;63577;39.766;2.720;2023-05-07T13:46:49;5.40;;;2.00;;
75016;SDS011;63577;39.766;2.720;2023-05-07T13:49:14;5.40;;;2.30;;
75016;SDS011;63577;39.766;2.720;2023-05-07T13:51:39;7.10;;;2.10;;
75016;SDS011;63577;39.766;2.720;2023-05-07T13:54:05;6.10;;;2.40;;
75016;SDS011;63577;39.766;2.720;2023-05-07T13:56:30;4.30;;;2.00;;
75016;SDS011;63577;39.766;2.720;2023-05-07T13:58:57;5.40;;;2.00;;
75016;SDS011;63577;39.766;2.720;2023-05-07T14:01:23;4.80;;;1.90;;
75016;SDS011;63577;39.766;2.720;2023-05-07T14:03:48;4.20;;;2.00;;
75016;SDS011;63577;39.766;2.720;2023-05-07T14:06:14;3.80;;;1.80;;
75016;SDS011;63577;39.766;2.720;2023-05-07T14:08:39;4.90;;;2.20;;
75016;SDS011;63577;39.766;2.720;2023-05-07T14:11:05;4.70;;;2.00;;
75016;SDS011;63577;39.766;2.720;2023-05-07T14:13:31;4.80;;;2.50;;
75016;SDS011;63577;39.766;2.720;2023-05-07T14:15:56;6.10;;;1.90;;
75016;SDS011;63577;39.766;2.720;2023-05-07T14:18:21;4.20;;;1.60;;
75016;SDS011;63577;39.766;2.720;2023-05-07T14:20:47;5.00;;;1.70;;
75016;SDS011;63577;39.766;2.720;2023-05-07T14:23:14;6.70;;;2.10;;
75016;SDS011;63577;39.766;2.720;2023-05-07T14:25:39;4.70;;;2.00;;
75016;SDS011;63577;39.766;2.720;2023-05-07T14:28:04;4.90;;;2.00;;
75016;SDS011;63577;39.766;2.720;2023-05-07T14:30:30;5.30;;;2.00;;
75016;SDS011;63577;39.766;2.720;2023-05-07T14:32:55;5.30;;;1.80;;
75016;SDS011;63577;39.766;2.720;2023-05-07T14:35:20;5.60;;;1.90;;
75016;SDS011;63577;39.766;2.720;2023-05-07T14:37:46;5.90;;;2.10;;
75016;SDS011;63577;39.766;2.720;2023-05-07T14:40:11;4.50;;;1.80;;
75016;SDS011;63577;39.766;2.720;2023-05-07T14:42:37;5.50;;;2.20;;
75016;SDS011;63577;39.766;2.720;2023-05-07T14:45:02;5.00;;;1.90;;
75016;SDS011;63577;39.766;2.720;2023-05-07T14:47:27;3.40;;;1.90;;
75016;SDS011;63577;39.766;2.720;2023-05-07T14:49:53;5.00;;;2.30;;
75016;SDS011;63577;39.766;2.720;2023-05-07T14:52:19;5.60;;;2.00;;
75016;SDS011;63577;39.766;2.720;2023-05-07T14:54:44;4.40;;;2.30;;
75016;SDS011;63577;39.766;2.720;2023-05-07T14:57:10;4.00;;;1.80;;
75016;SDS011;63577;39.766;2.720;2023-05-07T14:59:38;4.10;;;2.00;;